Bookmark and Share
Track history (hours):
 

MSC Bettina

Last reported at 2014-Apr-19 21:33 UTC. Time now 2014-Apr-24 13:41 UTC.
Position N 01°12' E 103°29'.

Length 366 m; draft 15.2 m.

Type: Ship (hazmat cat A). MMSI: 352361000.

NotesDate/timePositionNaut miles runAvg speedWind from/ knotsBaromVisibWave heightAir tempDewpointWater temp
2014-Apr-19 21:33N 01°12' E 103°29'1414.2
2014-Apr-19 20:33N 01°09' E 103°43'7 6.5
2014-Apr-19 19:33N 01°13' E 103°48'4 4.3
2014-Apr-19 18:32N 01°16' E 103°46'0 0.0
2014-Apr-19 17:29N 01°16' E 103°46'0 0.0
2014-Apr-19 16:32N 01°16' E 103°46'0 0.0
2014-Apr-19 15:32N 01°16' E 103°46'0 0.0
2014-Apr-19 14:32N 01°16' E 103°46'0 0.0
2014-Apr-19 13:29N 01°16' E 103°46'0 0.0
2014-Apr-19 12:32N 01°16' E 103°46'0 0.0
2014-Apr-19 11:32N 01°16' E 103°46'0 0.0
2014-Apr-19 10:32N 01°16' E 103°46'0 0.0
2014-Apr-19 09:32N 01°16' E 103°46'0 0.0
2014-Apr-19 08:32N 01°16' E 103°46'0 0.0
2014-Apr-19 07:29N 01°16' E 103°46'0 0.0
2014-Apr-19 06:32N 01°16' E 103°46'0 0.0
2014-Apr-19 05:29N 01°16' E 103°46'0 0.0
2014-Apr-19 04:26N 01°16' E 103°46'0 0.0
2014-Apr-19 03:29N 01°16' E 103°46'0 0.0
2014-Apr-19 02:32N 01°16' E 103°46'0 0.0
2014-Apr-19 01:32N 01°16' E 103°46'0 0.0
2014-Apr-19 00:26N 01°16' E 103°46'0 0.0
2014-Apr-18 23:32N 01°16' E 103°46'0 0.0
2014-Apr-18 22:32N 01°16' E 103°46'0 0.0
2014-Apr-18 21:29N 01°16' E 103°46'0 0.0
2014-Apr-18 20:32N 01°16' E 103°46'0 0.0
2014-Apr-18 19:32N 01°16' E 103°46'0 0.0
2014-Apr-18 18:32N 01°16' E 103°46'0 0.0
2014-Apr-18 17:32N 01°16' E 103°46'0 0.0
2014-Apr-18 16:32N 01°16' E 103°46'0 0.0
2014-Apr-18 15:32N 01°16' E 103°46'0 0.0
2014-Apr-18 14:32N 01°16' E 103°46'0 0.0
2014-Apr-18 13:32N 01°16' E 103°46'0 0.0
2014-Apr-18 12:32N 01°16' E 103°46'0 0.0
2014-Apr-18 11:32N 01°16' E 103°46'0 0.0
2014-Apr-18 10:29N 01°16' E 103°46'0 0.0
2014-Apr-18 09:32N 01°16' E 103°46'0 0.0
2014-Apr-18 08:32N 01°16' E 103°46'0 0.0
2014-Apr-18 07:32N 01°16' E 103°46'0 0.0
2014-Apr-18 06:32N 01°16' E 103°46'0 0.0
2014-Apr-18 05:32N 01°16' E 103°46'0 0.0
2014-Apr-18 04:32N 01°16' E 103°46'0 0.0
2014-Apr-18 03:32N 01°16' E 103°46'1 0.8
2014-Apr-18 02:33N 01°16' E 103°46'6 6.0
2014-Apr-18 01:33N 01°12' E 103°51'4 3.5
2014-Apr-18 00:28N 01°14' E 103°55'5 5.1
2014-Apr-17 23:26N 01°16' E 103°60'  
2014-Apr-14 07:33N 23°48' E 118°07'46818.7
2014-Apr-13 06:30N 30°20' E 122°54'2121.0
2014-Apr-13 05:30N 30°31' E 122°33'1616.7
2014-Apr-13 04:33N 30°33' E 122°15'9 9.3
2014-Apr-13 03:33N 30°36' E 122°05'0 0.0
2014-Apr-13 01:11N 30°36' E 122°05'0 0.0
2014-Apr-12 18:29N 30°36' E 122°05'0 0.0
2014-Apr-12 10:17N 30°36' E 122°05'0 0.0
2014-Apr-12 07:22N 30°36' E 122°05'0 0.0
2014-Apr-12 03:33N 30°36' E 122°05'6 6.1
2014-Apr-12 02:32N 30°34' E 122°12'9 9.5
2014-Apr-12 01:33N 30°33' E 122°23'1312.6
2014-Apr-12 00:32N 30°31' E 122°37'1414.4
2014-Apr-11 23:32N 30°20' E 122°47'0 0.1
2014-Apr-11 20:14N 30°19' E 122°47'0 0.0
2014-Apr-11 16:26N 30°19' E 122°47'0 0.0
2014-Apr-11 08:32N 30°19' E 122°47'0 0.1
2014-Apr-11 07:32N 30°19' E 122°47'0 0.1
2014-Apr-11 06:32N 30°19' E 122°47'0 0.0
2014-Apr-11 05:20N 30°19' E 122°47'0 0.0
2014-Apr-11 04:32N 30°19' E 122°47'0 0.0
2014-Apr-11 03:26N 30°19' E 122°47'0 0.0
2014-Apr-11 01:32N 30°19' E 122°47'0 0.1
2014-Apr-11 00:13N 30°19' E 122°47'5 7.1
2014-Apr-10 23:33N 30°18' E 122°53'1111.1
2014-Apr-10 22:33N 30°10' E 123°01'1211.9
2014-Apr-10 21:33N 29°58' E 122°59'1211.8
2014-Apr-10 20:33N 29°47' E 122°54'1111.3
2014-Apr-10 19:33N 29°40' E 122°43'1111.0
2014-Apr-10 18:33N 29°40' E 122°31'1212.2
2014-Apr-10 17:33N 29°46' E 122°18'1111.2
2014-Apr-10 16:33N 29°55' E 122°10'7 6.1
2014-Apr-10 15:28N 29°53' E 122°02'0 0.0
2014-Apr-10 14:28N 29°53' E 122°02'0 0.0
2014-Apr-10 13:28N 29°53' E 122°02'0 0.0
2014-Apr-10 12:28N 29°53' E 122°02'0 0.0
2014-Apr-10 11:28N 29°53' E 122°02'0 0.0
2014-Apr-10 10:28N 29°53' E 122°02'0 0.0
2014-Apr-10 09:28N 29°53' E 122°02'0 0.0
2014-Apr-10 08:22N 29°53' E 122°02'0 0.0
2014-Apr-10 07:28N 29°53' E 122°02'0 0.0
2014-Apr-10 06:22N 29°53' E 122°02'0 0.0
2014-Apr-10 05:28N 29°53' E 122°02'0 0.0
2014-Apr-10 04:28N 29°53' E 122°02'0 0.0
2014-Apr-10 03:28N 29°53' E 122°02'0 0.0
2014-Apr-10 02:28N 29°53' E 122°02'0 0.0
2014-Apr-10 01:22N 29°53' E 122°02'0 0.0
2014-Apr-10 00:22N 29°53' E 122°02'0 0.0
2014-Apr-09 23:28N 29°53' E 122°02'0 0.0
2014-Apr-09 22:28N 29°53' E 122°02'  

Dump ship's entire track history

sailing weather and tide predictions

MSC Bettina — HPFG — position and weather